createdAt,value
2019-01-30T00:01:12.127Z,6.17
2019-01-30T00:03:41.347Z,8.80
2019-01-30T00:06:10.182Z,6.00
2019-01-30T00:08:38.967Z,7.33
2019-01-30T00:11:07.807Z,6.63
2019-01-30T00:13:36.741Z,8.53
2019-01-30T00:16:06.539Z,7.40
2019-01-30T00:18:35.370Z,6.53
2019-01-30T00:21:04.659Z,6.50
2019-01-30T00:23:33.536Z,6.13
2019-01-30T00:26:02.337Z,7.07
2019-01-30T00:28:31.179Z,6.53
2019-01-30T00:31:00.063Z,7.00
2019-01-30T00:33:28.830Z,7.47
2019-01-30T00:35:57.718Z,6.20
2019-01-30T00:38:26.840Z,6.50
2019-01-30T00:40:55.701Z,6.73
2019-01-30T00:43:24.466Z,6.60
2019-01-30T00:45:53.352Z,6.73
2019-01-30T00:48:22.215Z,5.97
2019-01-30T00:50:51.071Z,6.87
2019-01-30T00:53:19.965Z,5.83
2019-01-30T00:55:48.805Z,5.90
2019-01-30T00:58:17.675Z,5.90
2019-01-30T01:00:46.625Z,6.47
2019-01-30T01:03:15.596Z,6.10
2019-01-30T01:05:44.534Z,5.60
2019-01-30T01:08:13.724Z,5.97
2019-01-30T01:10:42.688Z,6.13
2019-01-30T01:13:11.503Z,6.20
2019-01-30T01:15:40.286Z,5.80
2019-01-30T01:18:09.623Z,7.17
2019-01-30T01:20:38.464Z,6.10
2019-01-30T01:23:07.403Z,6.07
2019-01-30T01:25:36.246Z,6.53
2019-01-30T01:28:05.411Z,5.50
2019-01-30T01:30:34.280Z,6.17
2019-01-30T01:33:03.106Z,6.20
2019-01-30T01:35:31.878Z,5.00
2019-01-30T01:38:00.659Z,4.83
2019-01-30T01:40:29.618Z,6.23
2019-01-30T01:42:58.468Z,5.63
2019-01-30T01:45:27.712Z,6.27
2019-01-30T01:47:56.578Z,4.60
2019-01-30T01:50:25.371Z,5.53
2019-01-30T01:52:54.527Z,5.93
2019-01-30T01:55:23.419Z,6.50
2019-01-30T01:57:52.354Z,5.83
2019-01-30T02:00:21.766Z,6.07
2019-01-30T02:02:50.787Z,5.03
2019-01-30T02:05:21.178Z,4.87
2019-01-30T02:07:50.512Z,5.17
2019-01-30T02:10:21.086Z,4.20
2019-01-30T02:12:50.253Z,4.97
2019-01-30T02:15:20.790Z,4.23
2019-01-30T02:17:50.665Z,5.03
2019-01-30T02:20:28.017Z,5.60
2019-01-30T02:22:56.935Z,6.40
2019-01-30T02:25:25.850Z,4.77
2019-01-30T02:27:54.802Z,6.00
2019-01-30T02:30:25.582Z,5.57
2019-01-30T02:32:54.598Z,5.43
2019-01-30T02:35:23.684Z,5.90
2019-01-30T02:37:52.670Z,5.17
2019-01-30T02:40:23.691Z,4.93
2019-01-30T02:42:52.691Z,4.97
2019-01-30T02:45:23.324Z,6.13
2019-01-30T02:47:52.273Z,4.40
2019-01-30T02:50:21.864Z,4.30
2019-01-30T02:52:51.063Z,5.83
2019-01-30T02:55:20.343Z,6.07
2019-01-30T02:57:49.536Z,4.90
2019-01-30T03:00:20.666Z,5.70
2019-01-30T03:02:49.903Z,6.33
2019-01-30T03:05:18.849Z,5.37
2019-01-30T03:07:48.051Z,4.90
2019-01-30T03:10:17.976Z,5.80
2019-01-30T03:12:47.024Z,5.80
2019-01-30T03:15:16.152Z,4.83
2019-01-30T03:17:45.056Z,5.13
2019-01-30T03:20:16.725Z,6.27
2019-01-30T03:22:45.590Z,5.30
2019-01-30T03:25:14.799Z,5.00
2019-01-30T03:27:43.735Z,5.83
2019-01-30T03:30:15.398Z,4.47
2019-01-30T03:32:44.294Z,5.20
2019-01-30T03:35:13.355Z,5.20
2019-01-30T03:37:42.824Z,4.17
2019-01-30T03:40:13.894Z,4.90
2019-01-30T03:42:42.855Z,6.10
2019-01-30T03:45:12.578Z,4.97
2019-01-30T03:47:41.590Z,4.70
2019-01-30T03:50:11.395Z,5.00
2019-01-30T03:52:40.463Z,4.73
2019-01-30T03:55:10.464Z,5.27
2019-01-30T03:57:39.596Z,4.70
2019-01-30T04:00:12.279Z,4.93
2019-01-30T04:02:41.411Z,5.17
2019-01-30T04:05:10.405Z,4.73
2019-01-30T04:07:39.235Z,4.23
2019-01-30T04:10:09.329Z,5.43
2019-01-30T04:12:38.263Z,5.70
2019-01-30T04:15:07.620Z,4.17
2019-01-30T04:17:36.384Z,4.47
2019-01-30T04:20:06.830Z,5.27
2019-01-30T04:22:35.752Z,4.00
2019-01-30T04:25:05.756Z,5.20
2019-01-30T04:27:34.640Z,5.17
2019-01-30T04:30:03.996Z,4.70
2019-01-30T04:32:32.766Z,4.47
2019-01-30T04:35:01.631Z,3.37
2019-01-30T04:37:30.432Z,5.10
2019-01-30T04:39:59.285Z,3.90
2019-01-30T04:42:28.140Z,3.93
2019-01-30T04:44:57.379Z,4.43
2019-01-30T04:47:26.404Z,4.47
2019-01-30T04:49:56.264Z,4.43
2019-01-30T04:52:26.083Z,4.60
2019-01-30T04:54:54.956Z,4.87
2019-01-30T04:57:23.849Z,4.73
2019-01-30T04:59:52.734Z,3.97
2019-01-30T05:02:21.582Z,3.90
2019-01-30T05:04:50.642Z,4.67
2019-01-30T05:07:19.425Z,3.73
2019-01-30T05:09:48.224Z,4.77
2019-01-30T05:12:17.113Z,5.50
2019-01-30T05:14:45.935Z,4.60
2019-01-30T05:17:14.770Z,4.10
2019-01-30T05:19:43.546Z,6.90
2019-01-30T05:22:12.378Z,4.63
2019-01-30T05:24:41.246Z,7.67
2019-01-30T05:27:10.138Z,4.73
2019-01-30T05:29:39.048Z,5.60
2019-01-30T05:32:07.900Z,4.90
2019-01-30T05:34:36.676Z,6.13
2019-01-30T05:37:06.126Z,3.77
2019-01-30T05:39:35.014Z,4.77
2019-01-30T05:42:03.880Z,4.47
2019-01-30T05:44:32.774Z,4.90
2019-01-30T05:47:01.655Z,4.83
2019-01-30T05:49:31.463Z,6.60
2019-01-30T05:52:00.600Z,4.93
2019-01-30T05:54:31.075Z,4.40
2019-01-30T05:57:00.793Z,4.50
2019-01-30T05:59:30.011Z,5.90
2019-01-30T06:01:58.867Z,5.47
2019-01-30T06:04:28.282Z,5.47
2019-01-30T06:06:57.125Z,4.07
2019-01-30T06:09:26.643Z,4.73
2019-01-30T06:11:59.022Z,4.30
2019-01-30T06:14:27.818Z,5.47
2019-01-30T06:16:57.687Z,5.70
2019-01-30T06:19:29.473Z,5.87
2019-01-30T06:22:00.997Z,5.13
2019-01-30T06:24:30.020Z,5.47
2019-01-30T06:26:59.215Z,5.13
2019-01-30T06:29:28.252Z,5.43
2019-01-30T06:31:57.336Z,5.50
2019-01-30T06:34:26.476Z,6.10
2019-01-30T06:36:56.061Z,4.70
2019-01-30T06:39:24.926Z,6.40
2019-01-30T06:41:55.354Z,8.13
2019-01-30T06:44:24.311Z,8.07
2019-01-30T06:46:53.212Z,9.37
2019-01-30T06:49:22.334Z,9.07
2019-01-30T06:51:51.303Z,9.37
2019-01-30T06:54:20.411Z,7.90
2019-01-30T06:56:49.692Z,10.67
2019-01-30T06:59:18.538Z,11.07
2019-01-30T07:01:47.683Z,11.00
2019-01-30T07:04:17.343Z,11.30
2019-01-30T07:06:46.198Z,10.17
2019-01-30T07:09:15.160Z,11.00
2019-01-30T07:11:44.298Z,10.03
2019-01-30T07:14:13.092Z,11.33
2019-01-30T07:16:43.092Z,11.53
2019-01-30T07:19:12.012Z,11.43
2019-01-30T07:21:41.084Z,12.90
2019-01-30T07:26:45.048Z,10.10
2019-01-30T07:29:14.079Z,10.00
2019-01-30T07:31:42.983Z,10.13
2019-01-30T07:34:12.212Z,11.00
2019-01-30T07:36:41.206Z,11.30
2019-01-30T07:39:10.421Z,11.90
2019-01-30T07:41:39.692Z,9.90
2019-01-30T07:44:08.556Z,10.67
2019-01-30T07:46:37.634Z,9.77
2019-01-30T07:49:06.875Z,12.20
2019-01-30T07:51:35.847Z,12.47
2019-01-30T07:54:04.908Z,10.67
2019-01-30T07:56:34.015Z,11.30
2019-01-30T07:59:03.355Z,10.67
2019-01-30T08:01:32.491Z,12.10
2019-01-30T08:06:36.386Z,11.77
2019-01-30T08:09:08.760Z,11.37
2019-01-30T08:11:40.643Z,11.67
2019-01-30T08:14:09.528Z,11.30
2019-01-30T08:16:38.514Z,10.67
2019-01-30T08:19:07.911Z,9.70
2019-01-30T08:21:36.912Z,11.03
2019-01-30T08:24:06.198Z,11.60
2019-01-30T08:26:35.524Z,9.87
2019-01-30T08:29:04.829Z,11.37
2019-01-30T08:31:33.871Z,10.90
2019-01-30T08:34:02.830Z,10.13
2019-01-30T08:36:37.491Z,10.03
2019-01-30T08:39:08.909Z,11.57
2019-01-30T08:41:37.846Z,12.07
2019-01-30T08:44:06.874Z,10.67
2019-01-30T08:46:35.728Z,13.03
2019-01-30T08:49:05.082Z,12.00
2019-01-30T08:51:34.493Z,11.87
2019-01-30T08:54:03.379Z,12.30
2019-01-30T08:56:38.735Z,13.47
2019-01-30T08:59:05.723Z,11.60
2019-01-30T09:01:33.803Z,10.83
2019-01-30T09:04:02.914Z,11.20
2019-01-30T09:06:32.213Z,11.87
2019-01-30T09:09:01.596Z,10.13
2019-01-30T09:11:30.788Z,10.20
2019-01-30T09:13:59.776Z,11.17
2019-01-30T09:16:29.295Z,12.00
2019-01-30T09:19:00.354Z,11.47
2019-01-30T09:21:29.430Z,11.37
2019-01-30T09:23:58.392Z,10.60
2019-01-30T09:26:27.341Z,10.43
2019-01-30T09:28:57.248Z,11.00
2019-01-30T09:31:26.083Z,12.30
2019-01-30T09:33:54.972Z,11.20
2019-01-30T09:36:23.938Z,11.13
2019-01-30T09:39:06.961Z,10.83
2019-01-30T09:41:36.279Z,10.60
2019-01-30T09:44:05.270Z,11.10
2019-01-30T09:46:34.046Z,10.90
2019-01-30T09:49:03.120Z,12.10
2019-01-30T09:51:33.123Z,14.20
2019-01-30T09:54:02.153Z,10.60
2019-01-30T09:56:31.139Z,12.23
2019-01-30T09:59:00.251Z,9.90
2019-01-30T10:01:29.384Z,11.87
2019-01-30T10:03:58.486Z,10.27
2019-01-30T10:06:27.314Z,11.67
2019-01-30T10:08:56.414Z,12.00
2019-01-30T10:11:25.203Z,9.80
2019-01-30T10:13:54.005Z,11.77
2019-01-30T10:16:24.025Z,12.07
2019-01-30T10:18:53.771Z,11.90
2019-01-30T10:23:56.690Z,10.33
2019-01-30T10:26:25.510Z,10.67
2019-01-30T10:28:54.418Z,12.63
2019-01-30T10:31:23.242Z,11.47
2019-01-30T10:33:52.195Z,10.00
2019-01-30T10:36:21.267Z,13.87
2019-01-30T10:38:50.224Z,13.10
2019-01-30T10:41:19.134Z,12.30
2019-01-30T10:43:49.566Z,11.30
2019-01-30T10:46:18.629Z,12.07
2019-01-30T10:48:47.443Z,13.47
2019-01-30T10:51:19.294Z,12.00
2019-01-30T10:53:48.337Z,12.83
2019-01-30T10:56:17.633Z,12.23
2019-01-30T10:58:47.485Z,13.30
2019-01-30T11:01:16.579Z,11.10
2019-01-30T11:03:45.460Z,13.10
2019-01-30T11:06:14.332Z,12.47
2019-01-30T11:08:45.629Z,12.47
2019-01-30T11:11:14.490Z,12.97
2019-01-30T11:13:43.387Z,13.20
2019-01-30T11:16:12.806Z,16.10
2019-01-30T11:18:41.764Z,11.87
2019-01-30T11:21:10.663Z,12.40
2019-01-30T11:23:40.003Z,12.97
2019-01-30T11:26:09.047Z,12.97
2019-01-30T11:28:37.918Z,11.97
2019-01-30T11:31:10.352Z,11.37
2019-01-30T11:33:39.496Z,11.67
2019-01-30T11:36:12.227Z,11.60
2019-01-30T11:38:41.087Z,12.23
2019-01-30T11:41:09.902Z,11.97
2019-01-30T11:43:38.947Z,10.80
2019-01-30T11:46:07.912Z,10.60
2019-01-30T11:48:37.179Z,12.40
2019-01-30T11:51:06.161Z,13.30
2019-01-30T11:53:34.967Z,12.30
2019-01-30T11:56:04.127Z,11.13
2019-01-30T11:58:33.129Z,11.40
2019-01-30T12:01:03.673Z,11.43
2019-01-30T12:03:32.808Z,12.10
2019-01-30T12:06:02.403Z,12.53
2019-01-30T12:08:31.261Z,11.90
2019-01-30T12:11:00.519Z,18.60
2019-01-30T12:13:29.890Z,14.00
2019-01-30T12:15:58.849Z,20.87
2019-01-30T12:18:27.819Z,13.43
2019-01-30T12:20:57.048Z,12.43
2019-01-30T12:23:26.298Z,12.60
2019-01-30T12:25:55.509Z,13.20
2019-01-30T12:28:24.400Z,12.30
2019-01-30T12:30:54.230Z,13.37
2019-01-30T12:33:23.232Z,12.20
2019-01-30T12:35:52.745Z,11.40
2019-01-30T12:38:21.859Z,14.90
2019-01-30T12:40:50.666Z,13.13
2019-01-30T12:43:19.621Z,13.57
2019-01-30T12:45:48.471Z,13.50
2019-01-30T12:48:17.798Z,16.07
2019-01-30T12:50:46.599Z,13.13
2019-01-30T12:53:16.599Z,12.80
2019-01-30T12:55:45.629Z,13.20
2019-01-30T12:58:14.500Z,14.23
2019-01-30T13:00:44.287Z,12.60
2019-01-30T13:03:13.166Z,12.43
2019-01-30T13:05:42.062Z,13.67
2019-01-30T13:08:10.993Z,13.23
2019-01-30T13:10:39.926Z,14.23
2019-01-30T13:13:09.204Z,13.50
2019-01-30T13:15:38.150Z,14.07
2019-01-30T13:18:17.638Z,12.85
2019-01-30T13:20:38.211Z,12.70
2019-01-30T13:23:07.283Z,13.00
2019-01-30T13:25:36.600Z,12.43
2019-01-30T13:28:06.783Z,14.20
2019-01-30T13:30:38.080Z,14.00
2019-01-30T13:33:08.922Z,16.60
2019-01-30T13:35:37.898Z,16.03
2019-01-30T13:38:07.420Z,19.07
2019-01-30T13:40:38.110Z,16.23
2019-01-30T13:43:07.745Z,17.47
2019-01-30T13:45:36.689Z,17.23
2019-01-30T13:48:18.206Z,17.77
2019-01-30T13:50:47.681Z,18.90
2019-01-30T13:53:16.650Z,20.77
2019-01-30T13:55:45.573Z,18.73
2019-01-30T13:58:15.020Z,18.27
2019-01-30T14:00:44.118Z,18.70
2019-01-30T14:03:13.598Z,19.67
2019-01-30T14:05:42.528Z,18.43
2019-01-30T14:08:12.694Z,19.32
2019-01-30T14:10:42.459Z,20.20
2019-01-30T14:13:11.612Z,18.17
2019-01-30T14:15:40.601Z,18.03
2019-01-30T14:18:09.896Z,17.27
2019-01-30T14:20:38.788Z,19.40
2019-01-30T14:23:08.292Z,17.90
2019-01-30T14:25:37.324Z,21.37
2019-01-30T14:28:06.393Z,22.50
2019-01-30T14:30:37.881Z,19.83
2019-01-30T14:33:07.372Z,21.07
2019-01-30T14:35:44.093Z,18.40
2019-01-30T14:38:13.078Z,19.13
2019-01-30T14:40:42.458Z,19.97
2019-01-30T14:43:11.375Z,20.30
2019-01-30T14:45:40.289Z,20.80
2019-01-30T14:48:09.479Z,19.30
2019-01-30T14:50:39.513Z,17.90
2019-01-30T14:53:08.444Z,17.30
2019-01-30T14:55:37.361Z,17.50
2019-01-30T14:58:07.828Z,20.13
2019-01-30T15:00:36.813Z,19.60
2019-01-30T15:03:06.607Z,19.30
2019-01-30T15:05:35.965Z,17.37
2019-01-30T15:08:05.409Z,19.20
2019-01-30T15:10:34.525Z,16.77
2019-01-30T15:13:04.456Z,19.93
2019-01-30T15:15:33.433Z,17.00
2019-01-30T15:18:03.249Z,18.70
2019-01-30T15:20:34.129Z,17.37
2019-01-30T15:23:03.603Z,17.80
2019-01-30T15:25:33.166Z,17.57
2019-01-30T15:28:02.279Z,16.60
2019-01-30T15:30:50.488Z,19.73
2019-01-30T15:33:19.985Z,15.43
2019-01-30T15:35:49.090Z,17.30
2019-01-30T15:38:20.866Z,16.80
2019-01-30T15:40:49.776Z,15.30
2019-01-30T15:43:18.572Z,17.40
2019-01-30T15:45:48.021Z,17.30
2019-01-30T15:48:17.816Z,16.87
2019-01-30T15:50:46.650Z,18.37
2019-01-30T15:53:18.500Z,19.27
2019-01-30T15:55:47.445Z,19.47
2019-01-30T15:58:16.727Z,21.13
2019-01-30T16:01:00.671Z,20.20
2019-01-30T16:03:29.580Z,21.33
2019-01-30T16:05:59.000Z,18.27
2019-01-30T16:08:28.011Z,20.03
2019-01-30T16:10:56.890Z,23.60
2019-01-30T16:13:25.721Z,22.33
2019-01-30T16:16:00.608Z,24.23
2019-01-30T16:18:29.656Z,24.90
2019-01-30T16:20:58.707Z,24.43
2019-01-30T16:23:27.689Z,25.60
2019-01-30T16:25:57.859Z,26.62
2019-01-30T16:28:27.623Z,27.80
2019-01-30T16:30:56.603Z,27.43
2019-01-30T16:33:25.622Z,24.70
2019-01-30T16:35:56.292Z,27.60
2019-01-30T16:38:25.230Z,31.80
2019-01-30T16:40:54.508Z,29.57
2019-01-30T16:43:23.849Z,30.33
2019-01-30T16:45:52.790Z,30.43
2019-01-30T16:48:22.145Z,33.07
2019-01-30T16:50:51.232Z,32.47
2019-01-30T16:53:20.339Z,33.27
2019-01-30T16:55:50.009Z,34.13
2019-01-30T16:58:18.883Z,33.10
2019-01-30T17:00:48.018Z,35.27
2019-01-30T17:03:17.271Z,35.30
2019-01-30T17:05:46.502Z,35.17
2019-01-30T17:08:15.693Z,39.23
2019-01-30T17:10:45.128Z,36.33
2019-01-30T17:13:14.355Z,34.17
2019-01-30T17:15:44.191Z,37.93
2019-01-30T17:18:14.708Z,36.37
2019-01-30T17:20:43.839Z,37.10
2019-01-30T17:23:12.988Z,35.30
2019-01-30T17:25:42.141Z,36.70
2019-01-30T17:28:11.287Z,35.53
2019-01-30T17:30:49.832Z,33.90
2019-01-30T17:33:18.815Z,34.40
2019-01-30T17:35:48.048Z,34.93
2019-01-30T17:38:17.047Z,35.10
2019-01-30T17:40:46.450Z,31.87
2019-01-30T17:43:15.276Z,42.33
2019-01-30T17:45:44.846Z,36.80
2019-01-30T17:48:14.705Z,29.00
2019-01-30T17:50:44.063Z,31.37
2019-01-30T17:53:12.950Z,29.37
2019-01-30T17:55:42.146Z,27.77
2019-01-30T17:58:11.572Z,25.20
2019-01-30T18:01:10.210Z,25.87
2019-01-30T18:03:39.231Z,24.90
2019-01-30T18:06:08.231Z,24.23
2019-01-30T18:08:37.481Z,25.43
2019-01-30T18:11:06.372Z,23.77
2019-01-30T18:13:35.691Z,25.80
2019-01-30T18:16:05.011Z,25.23
2019-01-30T18:18:34.123Z,26.20
2019-01-30T18:21:03.310Z,22.10
2019-01-30T18:23:32.278Z,22.43
2019-01-30T18:26:01.457Z,27.90
2019-01-30T18:28:30.292Z,26.40
2019-01-30T18:30:59.096Z,25.77
2019-01-30T18:33:28.221Z,26.03
2019-01-30T18:35:57.818Z,28.20
2019-01-30T18:38:26.840Z,23.63
2019-01-30T18:40:55.803Z,24.13
2019-01-30T18:43:24.953Z,23.60
2019-01-30T18:45:53.921Z,23.27
2019-01-30T18:48:22.953Z,23.80
2019-01-30T18:50:52.171Z,24.67
2019-01-30T18:53:21.144Z,24.47
2019-01-30T18:55:49.959Z,24.97
2019-01-30T18:58:19.016Z,25.97
2019-01-30T19:00:47.804Z,24.33
2019-01-30T19:03:18.295Z,25.03
2019-01-30T19:05:47.507Z,25.70
2019-01-30T19:08:16.590Z,23.40
2019-01-30T19:10:45.516Z,24.90
2019-01-30T19:13:14.559Z,24.03
2019-01-30T19:15:43.561Z,25.43
2019-01-30T19:18:14.679Z,26.90
2019-01-30T19:20:45.635Z,24.40
2019-01-30T19:23:14.654Z,22.80
2019-01-30T19:25:43.580Z,21.47
2019-01-30T19:28:12.559Z,23.17
2019-01-30T19:30:41.429Z,22.60
2019-01-30T19:33:11.126Z,22.33
2019-01-30T19:35:40.399Z,21.47
2019-01-30T19:38:09.863Z,23.10
2019-01-30T19:40:38.753Z,25.67
2019-01-30T19:43:08.283Z,21.60
2019-01-30T19:45:37.208Z,20.43
2019-01-30T19:48:07.230Z,19.90
2019-01-30T19:50:36.387Z,21.67
2019-01-30T19:53:06.574Z,22.10
2019-01-30T19:55:35.519Z,20.80
2019-01-30T19:58:04.961Z,21.30
2019-01-30T20:00:36.510Z,19.10
2019-01-30T20:03:08.015Z,20.10
2019-01-30T20:05:37.025Z,19.27
2019-01-30T20:08:06.151Z,19.27
2019-01-30T20:10:35.542Z,20.07
2019-01-30T20:13:05.039Z,18.77
2019-01-30T20:15:34.100Z,19.43
2019-01-30T20:18:03.051Z,16.47
2019-01-30T20:20:32.014Z,20.60
2019-01-30T20:23:01.085Z,18.40
2019-01-30T20:25:32.463Z,18.53
2019-01-30T20:28:01.422Z,18.37
2019-01-30T20:30:34.091Z,19.93
2019-01-30T20:33:03.457Z,17.90
2019-01-30T20:35:32.816Z,19.20
2019-01-30T20:38:01.725Z,19.83
2019-01-30T20:40:30.953Z,16.13
2019-01-30T20:43:00.337Z,17.33
2019-01-30T20:45:33.882Z,14.07
2019-01-30T20:48:00.843Z,16.43
2019-01-30T20:50:30.426Z,16.83
2019-01-30T20:52:59.595Z,16.10
2019-01-30T20:55:29.106Z,17.37
2019-01-30T20:57:58.009Z,18.00
2019-01-30T21:00:29.319Z,16.13
2019-01-30T21:02:58.263Z,16.50
2019-01-30T21:05:27.386Z,17.50
2019-01-30T21:07:56.585Z,18.23
2019-01-30T21:10:34.145Z,16.40
2019-01-30T21:13:03.065Z,14.77
2019-01-30T21:15:31.846Z,14.00
2019-01-30T21:18:00.844Z,15.43
2019-01-30T21:20:30.133Z,14.73
2019-01-30T21:22:59.113Z,16.10
2019-01-30T21:25:28.531Z,12.07
2019-01-30T21:27:58.223Z,11.93
2019-01-30T21:30:32.495Z,12.93
2019-01-30T21:33:01.823Z,12.50
2019-01-30T21:35:30.945Z,13.53
2019-01-30T21:37:59.932Z,12.27
2019-01-30T21:40:29.100Z,13.50
2019-01-30T21:42:58.010Z,14.77
2019-01-30T21:45:27.236Z,13.40
2019-01-30T21:47:56.880Z,11.13
2019-01-30T21:50:25.690Z,11.73
2019-01-30T21:52:54.496Z,13.00
2019-01-30T21:55:24.731Z,14.47
2019-01-30T21:57:53.603Z,12.63
2019-01-30T22:00:27.563Z,12.77
2019-01-30T22:02:56.718Z,14.07
2019-01-30T22:05:28.616Z,14.50
2019-01-30T22:08:00.946Z,14.77
2019-01-30T22:10:29.653Z,13.63
2019-01-30T22:12:58.601Z,11.03
2019-01-30T22:15:27.787Z,13.67
2019-01-30T22:17:56.871Z,11.60
2019-01-30T22:20:26.580Z,9.60
2019-01-30T22:22:56.052Z,11.03
2019-01-30T22:25:25.238Z,9.93
2019-01-30T22:27:54.118Z,9.60
2019-01-30T22:30:25.187Z,9.90
2019-01-30T22:32:54.339Z,9.40
2019-01-30T22:35:23.543Z,9.07
2019-01-30T22:37:52.670Z,9.83
2019-01-30T22:40:22.174Z,9.80
2019-01-30T22:42:51.204Z,10.70
2019-01-30T22:45:20.160Z,10.00
2019-01-30T22:47:49.062Z,9.10
2019-01-30T22:50:19.054Z,8.57
2019-01-30T22:52:48.279Z,9.17
2019-01-30T22:55:19.268Z,9.43
2019-01-30T22:57:50.720Z,12.50
2019-01-30T23:00:54.327Z,11.83
2019-01-30T23:04:10.600Z,12.13
2019-01-30T23:07:09.117Z,11.83
2019-01-30T23:10:21.137Z,12.27
2019-01-30T23:13:27.730Z,10.87
2019-01-30T23:16:24.303Z,11.67
2019-01-30T23:19:17.694Z,11.50
2019-01-30T23:22:00.440Z,9.07
2019-01-30T23:25:05.888Z,9.47
2019-01-30T23:27:50.608Z,8.43
2019-01-30T23:30:51.165Z,9.37
2019-01-30T23:33:45.617Z,8.27
2019-01-30T23:36:31.712Z,8.40
2019-01-30T23:39:22.462Z,9.07
2019-01-30T23:42:19.558Z,6.90
2019-01-30T23:45:14.531Z,6.93
2019-01-30T23:48:08.994Z,7.60
2019-01-30T23:50:47.564Z,6.47
2019-01-30T23:53:59.539Z,6.17
2019-01-30T23:56:46.714Z,5.60
2019-01-30T23:59:49.286Z,5.70
